Detall de PIREP

Printer-friendly versionPDF version

[2011/03/23 22:16:00]
Flight IATA:CT3109
Pilot Number:026
Company ICAO:CAT
Aircraft Type:DC85/A
PAX:132
Departing Airport: LEZG
Destination Airport: LIEA
Alternate Airport:LIEO
Online: VATSIM
Route:PONEN UN870 BCN UN725 ORKUM UM603 ELSAG
Flight Level:F320
No Slew and time accel
No pause
Crash detect
Detect pilot in Cockpit between each 30 and 45 minutes
22:16 Zero fuel Weight: 174388 Lbs, Fuel Weight: 26000 Lbs
22:16 VATSIM:LEZG 232200Z 12006KT CAVOK 07/02 Q1030
22:16 VATSIM:LIEA 232150Z 02003KT CAVOK 07/04 Q1032
22:17 VOICE CATALONIAN / INTERHUB ROUTE CT3109
22:27 Parking Brakes off
22:35 Take-off
22:35 Take off Weight: 199158 Lbs
22:35 Wind: 123º @ 006 Knots Heading: 119º
22:35 POS N41º 39´ 34´´ W001º 01´ 05´´
22:35 Gear Up: 176 Knots
22:35 Flaps:3 at 177 Knots
22:36 Flaps:2 at 154 Knots
22:37 Flaps:1 at 186 Knots
22:37 Flaps:0 at 192 Knots
22:50 Wind:040º@026 Knots Heading: 094º Ground Speed: 378 Knots Altitude 28549 ft
22:53 TOC
22:53 Fuel Weight: 19634 Lb
23:05 Wind:060º@023 Knots Heading: 109º Ground Speed: 454 Knots Altitude 32555 ft
23:18 TOD
23:18 Fuel Weight: 13803 Lb
23:20 Wind:062º@016 Knots Heading: 096º Ground Speed: 466 Knots Altitude 29373 ft
23:35 Wind:013º@005 Knots Heading: 097º Ground Speed: 275 Knots Altitude 9543 ft
23:44 Gear Down: 230 Knots
23:44 Flaps:1 at 220 Knots
23:45 Flaps:2 at 165 Knots
23:46 Flaps:3 at 170 Knots
23:46 Flaps:4 at 158 Knots
23:47 Flaps:5 at 144 Knots
23:47 TouchDown:Rate -459 ft/min Speed: 130 Knots
23:47 VATSIM:LIEA 232320Z VRB02KT CAVOK 07/03 Q1033
23:47 Land
23:47 Wind:331º@001 Knots
23:47 Heading: 023º
23:47 Flight Duration: 01:12
23:47 Landing Weight: 184495 Lbs
23:47 POS N40º 37´ 52´´ E008º 17´ 25´´
23:51 Parking brakes on
23:51 Block to Block Duration: 01:24
23:51 Final Fuel: 9830 Lbls
23:51 Spent Fuel: 16170 Lbls
23:51 Flight Length: 443 NM
23:51 TOD Land Length: 159 NM

Exportar CSV

Powered by Drupal - Modified by Danger4k